createdAt,value
2023-01-01T00:00:39.756Z,99093.38
2023-01-01T00:03:06.182Z,99094.38
2023-01-01T00:05:32.742Z,99082.94
2023-01-01T00:08:04.671Z,99083.91
2023-01-01T00:10:31.741Z,99084.44
2023-01-01T00:12:58.828Z,99088.56
2023-01-01T00:15:27.388Z,99094.06
2023-01-01T00:17:53.766Z,99094.19
2023-01-01T00:20:20.356Z,99106.97
2023-01-01T00:22:55.895Z,99104.16
2023-01-01T00:25:23.342Z,99106.66
2023-01-01T00:27:50.011Z,99103.16
2023-01-01T00:30:16.548Z,99106.47
2023-01-01T00:32:42.952Z,99110.28
2023-01-01T00:35:21.476Z,99110.47
2023-01-01T00:37:47.871Z,99110.25
2023-01-01T00:40:14.280Z,99117.06
2023-01-01T00:42:40.652Z,99113.91
2023-01-01T00:45:07.865Z,99107.78
2023-01-01T00:47:34.351Z,99093.69
2023-01-01T00:50:00.720Z,99098.50
2023-01-01T00:52:27.024Z,99091.50
2023-01-01T00:54:53.622Z,99081.06
2023-01-01T00:57:20.191Z,99089.50
2023-01-01T00:59:46.550Z,99082.84
2023-01-01T01:02:13.038Z,99082.34
2023-01-01T01:04:39.468Z,99078.38
2023-01-01T01:07:06.038Z,99080.47
2023-01-01T01:09:32.553Z,99071.06
2023-01-01T01:12:18.691Z,99073.84
2023-01-01T01:14:45.969Z,99071.84
2023-01-01T01:17:12.395Z,99077.66
2023-01-01T01:19:38.928Z,99071.34
2023-01-01T01:22:05.443Z,99068.34
2023-01-01T01:24:32.038Z,99076.47
2023-01-01T01:26:58.440Z,99059.22
2023-01-01T01:29:25.047Z,99073.13
2023-01-01T01:31:51.428Z,99075.78
2023-01-01T01:34:21.145Z,99072.31
2023-01-01T01:36:50.549Z,99070.47
2023-01-01T01:39:17.189Z,99071.47
2023-01-01T01:41:43.903Z,99075.13
2023-01-01T01:44:48.046Z,99069.34
2023-01-01T01:47:58.234Z,99062.88
2023-01-01T01:50:29.706Z,99057.06
2023-01-01T01:53:10.794Z,99051.91
2023-01-01T01:55:40.802Z,99045.09
2023-01-01T01:58:11.342Z,99042.78
2023-01-01T02:00:37.758Z,99039.81
2023-01-01T02:03:12.662Z,99046.06
2023-01-01T02:05:41.416Z,99041.09
2023-01-01T02:08:09.662Z,99050.03
2023-01-01T02:10:36.228Z,99058.16
2023-01-01T02:13:02.662Z,99058.31
2023-01-01T02:15:32.811Z,99060.59
2023-01-01T02:18:14.716Z,99065.56
2023-01-01T02:20:53.828Z,99053.97
2023-01-01T02:23:31.772Z,99056.78
2023-01-01T02:26:17.671Z,99060.41
2023-01-01T02:29:02.801Z,99057.25
2023-01-01T02:31:35.037Z,99065.88
2023-01-01T02:34:07.100Z,99059.72
2023-01-01T02:36:38.167Z,99062.03
2023-01-01T02:39:08.402Z,99071.13
2023-01-01T02:41:40.090Z,99073.78
2023-01-01T02:46:34.407Z,99064.81
2023-01-01T02:49:07.987Z,99067.28
2023-01-01T02:52:15.794Z,99063.25
2023-01-01T02:54:46.441Z,99057.81
2023-01-01T02:57:37.520Z,99067.41
2023-01-01T03:00:08.448Z,99064.63
2023-01-01T03:02:51.637Z,99064.63
2023-01-01T03:05:30.564Z,99064.63
2023-01-01T03:08:12.316Z,99069.53
2023-01-01T03:10:50.859Z,99079.31
2023-01-01T03:13:35.287Z,99092.03
2023-01-01T03:16:21.700Z,99075.47
2023-01-01T03:19:02.022Z,99079.78
2023-01-01T03:21:28.641Z,99094.22
2023-01-01T03:23:56.000Z,99085.44
2023-01-01T03:26:25.408Z,99083.94
2023-01-01T03:28:58.299Z,99086.25
2023-01-01T03:31:26.325Z,99087.72
2023-01-01T03:34:01.243Z,99100.66
2023-01-01T03:36:36.251Z,99092.38
2023-01-01T03:39:12.116Z,99089.28
2023-01-01T03:41:47.771Z,99093.59
2023-01-01T03:44:38.497Z,99108.91
2023-01-01T03:47:06.244Z,99113.69
2023-01-01T03:49:33.771Z,99112.03
2023-01-01T03:52:21.396Z,99126.56
2023-01-01T03:55:19.996Z,99130.66
2023-01-01T03:57:57.170Z,99139.09
2023-01-01T04:00:27.640Z,99125.38
2023-01-01T04:03:10.805Z,99132.03
2023-01-01T04:05:40.520Z,99135.22
2023-01-01T04:08:07.909Z,99132.91
2023-01-01T04:10:39.684Z,99128.28
2023-01-01T04:13:07.011Z,99135.25
2023-01-01T04:15:34.195Z,99146.53
2023-01-01T04:18:00.668Z,99145.00
2023-01-01T04:20:27.102Z,99140.53
2023-01-01T04:22:56.818Z,99138.50
2023-01-01T04:25:23.449Z,99146.91
2023-01-01T04:27:49.896Z,99146.00
2023-01-01T04:30:16.949Z,99152.94
2023-01-01T04:32:43.707Z,99160.13
2023-01-01T04:35:11.891Z,99162.25
2023-01-01T04:37:39.869Z,99162.22
2023-01-01T04:40:07.263Z,99171.75
2023-01-01T04:42:33.692Z,99180.28
2023-01-01T04:45:00.347Z,99184.38
2023-01-01T04:47:26.881Z,99188.31
2023-01-01T04:49:54.277Z,99194.09
2023-01-01T04:52:21.363Z,99200.22
2023-01-01T04:54:47.840Z,99202.31
2023-01-01T04:57:14.253Z,99205.28
2023-01-01T04:59:41.506Z,99214.47
2023-01-01T05:02:07.959Z,99225.84
2023-01-01T05:04:34.561Z,99214.56
2023-01-01T05:07:01.319Z,99228.38
2023-01-01T05:09:27.752Z,99235.66
2023-01-01T05:11:55.095Z,99248.31
2023-01-01T05:14:21.625Z,99243.03
2023-01-01T05:16:48.025Z,99257.41
2023-01-01T05:19:14.586Z,99247.66
2023-01-01T05:21:41.651Z,99253.78
2023-01-01T05:24:10.015Z,99257.56
2023-01-01T05:26:40.166Z,99256.19
2023-01-01T05:29:13.758Z,99261.25
2023-01-01T05:31:42.436Z,99266.19
2023-01-01T05:36:36.061Z,99273.78
2023-01-01T05:39:02.413Z,99267.13
2023-01-01T05:41:29.004Z,99257.78
2023-01-01T05:43:55.457Z,99256.00
2023-01-01T05:46:24.184Z,99260.16
2023-01-01T05:48:52.676Z,99244.44
2023-01-01T05:51:22.070Z,99244.28
2023-01-01T05:53:48.819Z,99242.78
2023-01-01T05:56:16.449Z,99239.56
2023-01-01T05:58:44.058Z,99238.22
2023-01-01T06:01:14.864Z,99246.41
2023-01-01T06:03:43.009Z,99238.50
2023-01-01T06:06:14.570Z,99232.09
2023-01-01T06:08:41.321Z,99236.94
2023-01-01T06:11:11.178Z,99228.19
2023-01-01T06:13:37.950Z,99231.66
2023-01-01T06:16:04.566Z,99214.28
2023-01-01T06:18:34.284Z,99211.09
2023-01-01T06:21:09.412Z,99215.53
2023-01-01T06:23:36.335Z,99210.00
2023-01-01T06:26:12.628Z,99210.44
2023-01-01T06:28:40.107Z,99207.09
2023-01-01T06:31:08.437Z,99197.38
2023-01-01T06:33:35.422Z,99200.16
2023-01-01T06:36:08.025Z,99201.69
2023-01-01T06:38:36.392Z,99202.34
2023-01-01T06:41:05.563Z,99201.53
2023-01-01T06:43:34.261Z,99199.72
2023-01-01T06:46:05.275Z,99201.25
2023-01-01T06:48:34.811Z,99193.75
2023-01-01T06:51:16.209Z,99204.19
2023-01-01T06:53:43.458Z,99188.78
2023-01-01T06:56:09.929Z,99189.34
2023-01-01T06:58:36.561Z,99197.94
2023-01-01T07:01:13.160Z,99200.16
2023-01-01T07:03:40.372Z,99190.44
2023-01-01T07:06:08.226Z,99195.28
2023-01-01T07:08:35.885Z,99195.28
2023-01-01T07:11:02.353Z,99200.03
2023-01-01T07:13:30.157Z,99199.63
2023-01-01T07:15:56.682Z,99198.88
2023-01-01T07:18:25.208Z,99194.31
2023-01-01T07:20:55.256Z,99196.94
2023-01-01T07:23:21.856Z,99197.78
2023-01-01T07:25:52.791Z,99197.63
2023-01-01T07:28:19.810Z,99205.13
2023-01-01T07:30:46.657Z,99199.94
2023-01-01T07:33:18.200Z,99205.66
2023-01-01T07:35:45.356Z,99208.59
2023-01-01T07:38:12.531Z,99214.03
2023-01-01T07:40:39.273Z,99210.53
2023-01-01T07:43:05.962Z,99218.34
2023-01-01T07:45:33.451Z,99220.53
2023-01-01T07:48:00.588Z,99224.00
2023-01-01T07:50:29.546Z,99226.97
2023-01-01T07:52:55.901Z,99239.72
2023-01-01T07:55:22.508Z,99250.03
2023-01-01T07:57:49.558Z,99250.31
2023-01-01T08:00:18.857Z,99254.16
2023-01-01T08:02:45.958Z,99258.69
2023-01-01T08:05:12.433Z,99261.50
2023-01-01T08:07:39.556Z,99267.63
2023-01-01T08:10:07.518Z,99270.69
2023-01-01T08:12:34.365Z,99274.28
2023-01-01T08:15:00.859Z,99281.50
2023-01-01T08:17:27.316Z,99283.69
2023-01-01T08:19:53.837Z,99292.63
2023-01-01T08:22:20.207Z,99315.16
2023-01-01T08:24:46.789Z,99319.59
2023-01-01T08:27:15.093Z,99322.78
2023-01-01T08:29:42.561Z,99325.16
2023-01-01T08:32:09.025Z,99318.91
2023-01-01T08:34:35.773Z,99321.50
2023-01-01T08:37:02.137Z,99328.16
2023-01-01T08:39:28.799Z,99335.25
2023-01-01T08:41:55.302Z,99332.63
2023-01-01T08:44:21.692Z,99324.22
2023-01-01T08:46:48.211Z,99335.06
2023-01-01T08:49:14.642Z,99338.94
2023-01-01T08:51:41.106Z,99333.09
2023-01-01T08:54:07.793Z,99349.34
2023-01-01T08:56:34.188Z,99351.63
2023-01-01T08:59:04.122Z,99356.44
2023-01-01T09:01:31.080Z,99367.03
2023-01-01T09:03:57.792Z,99373.81
2023-01-01T09:06:24.128Z,99383.94
2023-01-01T09:08:50.571Z,99390.63
2023-01-01T09:11:26.868Z,99400.44
2023-01-01T09:13:54.222Z,99409.25
2023-01-01T09:16:21.562Z,99427.81
2023-01-01T09:18:48.275Z,99423.56
2023-01-01T09:21:15.022Z,99421.81
2023-01-01T09:23:41.638Z,99424.09
2023-01-01T09:26:09.896Z,99430.16
2023-01-01T09:28:37.259Z,99448.41
2023-01-01T09:31:04.430Z,99460.97
2023-01-01T09:33:30.775Z,99474.56
2023-01-01T09:36:15.698Z,99496.69
2023-01-01T09:38:42.327Z,99495.31
2023-01-01T09:41:19.929Z,99505.88
2023-01-01T09:44:26.241Z,99528.00
2023-01-01T09:46:54.560Z,99548.97
2023-01-01T09:49:41.233Z,99548.31
2023-01-01T09:52:13.146Z,99564.63
2023-01-01T09:54:59.843Z,99576.47
2023-01-01T09:57:30.743Z,99598.00
2023-01-01T10:00:00.604Z,99603.81
2023-01-01T10:02:41.230Z,99617.44
2023-01-01T10:05:29.861Z,99655.19
2023-01-01T10:08:02.597Z,99704.97
2023-01-01T10:10:57.591Z,99757.00
2023-01-01T10:13:36.632Z,99804.19
2023-01-01T10:16:12.266Z,99820.34
2023-01-01T10:18:40.871Z,99837.53
2023-01-01T10:21:16.241Z,99852.06
2023-01-01T10:23:54.745Z,99863.56
2023-01-01T10:26:24.914Z,99869.53
2023-01-01T10:28:57.116Z,99876.72
2023-01-01T10:31:55.124Z,99880.84
2023-01-01T10:34:25.974Z,99869.47
2023-01-01T10:36:53.817Z,99874.44
2023-01-01T10:39:20.512Z,99887.25
2023-01-01T10:41:48.071Z,99887.47
2023-01-01T10:44:18.537Z,99883.38
2023-01-01T10:46:50.561Z,99872.94
2023-01-01T10:49:17.112Z,99869.09
2023-01-01T10:51:54.312Z,99853.56
2023-01-01T10:54:32.674Z,99832.91
2023-01-01T10:56:59.795Z,99847.53
2023-01-01T10:59:39.640Z,99842.81
2023-01-01T11:02:28.351Z,99912.75
2023-01-01T11:05:22.184Z,99879.19
2023-01-01T11:07:49.599Z,99882.59
2023-01-01T11:10:21.516Z,99827.03
2023-01-01T11:13:05.729Z,99762.72
2023-01-01T11:15:39.516Z,99739.34
2023-01-01T11:18:25.781Z,99688.00
2023-01-01T11:20:54.634Z,99655.13
2023-01-01T11:23:32.292Z,99616.66
2023-01-01T11:26:01.500Z,99597.72
2023-01-01T11:28:28.448Z,99607.84
2023-01-01T11:31:16.012Z,99616.53
2023-01-01T11:33:52.625Z,99578.56
2023-01-01T11:36:31.212Z,99564.94
2023-01-01T11:39:25.145Z,99565.13
2023-01-01T11:41:54.316Z,99555.94
2023-01-01T11:44:34.685Z,99576.16
2023-01-01T11:47:02.363Z,99570.66
2023-01-01T11:49:30.446Z,99575.81
2023-01-01T11:51:58.437Z,99565.66
2023-01-01T11:54:33.317Z,99516.94
2023-01-01T11:57:12.066Z,99507.13
2023-01-01T11:59:49.881Z,99474.78
2023-01-01T12:02:30.394Z,99489.13
2023-01-01T12:05:13.789Z,99473.28
2023-01-01T12:07:43.208Z,99429.66
2023-01-01T12:10:23.078Z,99402.97
2023-01-01T12:13:04.206Z,99392.59
2023-01-01T12:15:47.677Z,99366.13
2023-01-01T12:18:39.693Z,99366.28
2023-01-01T12:21:18.599Z,99375.97
2023-01-01T12:23:45.098Z,99353.22
2023-01-01T12:26:32.068Z,99350.00
2023-01-01T12:29:35.253Z,99336.94
2023-01-01T12:32:17.517Z,99332.31
2023-01-01T12:34:59.337Z,99335.78
2023-01-01T12:37:28.335Z,99332.00
2023-01-01T12:40:00.502Z,99314.09
2023-01-01T12:43:01.647Z,99311.19
2023-01-01T12:46:01.577Z,99271.59
2023-01-01T12:48:28.129Z,99255.94
2023-01-01T12:51:19.326Z,99264.53
2023-01-01T12:54:12.911Z,99251.81
2023-01-01T12:57:17.084Z,99232.47
2023-01-01T12:59:48.249Z,99230.41
2023-01-01T13:02:20.783Z,99227.69
2023-01-01T13:04:49.581Z,99225.59
2023-01-01T13:07:26.089Z,99217.66
2023-01-01T13:09:52.519Z,99233.22
2023-01-01T13:12:23.129Z,99232.91
2023-01-01T13:14:49.611Z,99231.78
2023-01-01T13:17:30.181Z,99246.00
2023-01-01T13:20:15.062Z,99260.16
2023-01-01T13:22:42.280Z,99261.34
2023-01-01T13:25:08.941Z,99238.53
2023-01-01T13:27:57.183Z,99208.31
2023-01-01T13:30:35.983Z,99200.97
2023-01-01T13:33:31.241Z,99205.75
2023-01-01T13:36:10.047Z,99205.03
2023-01-01T13:38:53.109Z,99199.59
2023-01-01T13:41:25.297Z,99195.41
2023-01-01T13:44:11.433Z,99206.63
2023-01-01T13:46:44.077Z,99208.34
2023-01-01T13:49:28.085Z,99227.09
2023-01-01T13:52:09.790Z,99214.25
2023-01-01T13:54:38.878Z,99213.31
2023-01-01T13:57:38.145Z,99213.38
2023-01-01T14:00:14.072Z,99225.25
2023-01-01T14:02:48.627Z,99236.44
2023-01-01T14:05:33.356Z,99250.34
2023-01-01T14:07:59.862Z,99268.56
2023-01-01T14:10:34.455Z,99256.97
2023-01-01T14:13:06.637Z,99260.47
2023-01-01T14:15:37.860Z,99255.91
2023-01-01T14:18:10.133Z,99261.69
2023-01-01T14:20:43.058Z,99259.84
2023-01-01T14:23:29.483Z,99250.59
2023-01-01T14:25:56.932Z,99263.03
2023-01-01T14:28:29.347Z,99263.88
2023-01-01T14:30:57.562Z,99260.16
2023-01-01T14:33:27.669Z,99258.31
2023-01-01T14:35:56.202Z,99256.69
2023-01-01T14:38:28.323Z,99247.78
2023-01-01T14:41:15.471Z,99263.94
2023-01-01T14:43:45.259Z,99272.00
2023-01-01T14:46:21.185Z,99271.38
2023-01-01T14:48:51.695Z,99275.28
2023-01-01T14:51:23.756Z,99280.25
2023-01-01T14:53:52.912Z,99299.81
2023-01-01T14:56:28.453Z,99316.50
2023-01-01T14:59:12.465Z,99328.22
2023-01-01T15:01:38.908Z,99346.16
2023-01-01T15:04:19.145Z,99366.13
2023-01-01T15:06:45.757Z,99379.06
2023-01-01T15:09:16.590Z,99380.25
2023-01-01T15:11:43.439Z,99378.97
2023-01-01T15:14:39.079Z,99401.13
2023-01-01T15:17:08.259Z,99430.91
2023-01-01T15:19:36.329Z,99465.25
2023-01-01T15:22:11.683Z,99485.53
2023-01-01T15:24:39.446Z,99492.19
2023-01-01T15:27:07.734Z,99506.25
2023-01-01T15:29:44.903Z,99527.53
2023-01-01T15:32:14.731Z,99558.94
2023-01-01T15:34:50.229Z,99574.34
2023-01-01T15:37:23.312Z,99594.72
2023-01-01T15:39:52.685Z,99614.28
2023-01-01T15:42:35.574Z,99649.03
2023-01-01T15:45:22.458Z,99689.22
2023-01-01T15:47:51.200Z,99711.31
2023-01-01T15:50:17.564Z,99731.56
2023-01-01T15:52:44.471Z,99744.50
2023-01-01T15:55:15.676Z,99778.16
2023-01-01T15:57:46.371Z,99797.38
2023-01-01T16:00:40.935Z,99814.25
2023-01-01T16:03:21.815Z,99830.16
2023-01-01T16:05:50.417Z,99845.19
2023-01-01T16:08:16.854Z,99866.72
2023-01-01T16:10:43.592Z,99881.94
2023-01-01T16:13:10.123Z,99940.19
2023-01-01T16:15:37.167Z,99957.03
2023-01-01T16:18:04.072Z,99953.69
2023-01-01T16:20:30.485Z,99935.50
2023-01-01T16:22:56.831Z,99936.00
2023-01-01T16:25:23.282Z,99941.50
2023-01-01T16:27:49.879Z,99954.13
2023-01-01T16:30:16.645Z,99975.59
2023-01-01T16:32:43.121Z,100001.59
2023-01-01T16:35:13.584Z,100025.03
2023-01-01T16:37:40.083Z,100038.16
2023-01-01T16:40:07.551Z,100047.13
2023-01-01T16:42:34.035Z,100067.09
2023-01-01T16:45:00.692Z,100073.88
2023-01-01T16:47:27.280Z,100096.34
2023-01-01T16:49:53.645Z,100095.84
2023-01-01T16:52:20.108Z,100093.97
2023-01-01T16:54:46.560Z,100109.56
2023-01-01T16:57:13.057Z,100111.84
2023-01-01T16:59:39.658Z,100125.66
2023-01-01T17:02:06.448Z,100132.41
2023-01-01T17:04:33.012Z,100137.75
2023-01-01T17:06:59.419Z,100134.38
2023-01-01T17:09:26.095Z,100140.59
2023-01-01T17:11:52.520Z,100139.16
2023-01-01T17:14:18.817Z,100155.75
2023-01-01T17:16:45.215Z,100176.19
2023-01-01T17:19:14.987Z,100186.09
2023-01-01T17:21:42.518Z,100198.84
2023-01-01T17:24:09.288Z,99562.09
2023-01-01T17:26:35.775Z,99544.94
2023-01-01T17:29:03.125Z,99545.91
2023-01-01T17:31:30.100Z,99540.56
2023-01-01T17:33:57.060Z,99536.22
2023-01-01T17:36:23.704Z,99530.56
2023-01-01T17:38:50.063Z,99522.25
2023-01-01T17:41:17.726Z,99475.84
2023-01-01T17:43:47.747Z,99465.84
2023-01-01T17:46:17.218Z,99459.19
2023-01-01T17:48:44.405Z,99454.72
2023-01-01T17:51:12.812Z,99456.03
2023-01-01T17:53:39.497Z,99441.09
2023-01-01T17:56:06.691Z,99437.41
2023-01-01T17:58:35.452Z,99440.88
2023-01-01T18:01:19.091Z,99431.44
2023-01-01T18:03:45.737Z,99439.03
2023-01-01T18:06:12.158Z,99431.41
2023-01-01T18:08:38.533Z,99422.25
2023-01-01T18:11:05.353Z,99418.25
2023-01-01T18:13:32.271Z,99411.59
2023-01-01T18:16:08.036Z,99411.06
2023-01-01T18:18:38.790Z,99401.06
2023-01-01T18:21:12.476Z,99400.91
2023-01-01T18:23:39.921Z,99393.94
2023-01-01T18:26:09.545Z,99388.09
2023-01-01T18:28:35.923Z,99381.13
2023-01-01T18:31:16.140Z,99377.44
2023-01-01T18:33:43.211Z,99376.25
2023-01-01T18:36:12.617Z,99385.53
2023-01-01T18:38:58.332Z,99374.41
2023-01-01T18:41:33.724Z,99365.25
2023-01-01T18:44:00.430Z,99366.72
2023-01-01T18:46:29.388Z,99353.09
2023-01-01T18:48:59.826Z,99354.06
2023-01-01T18:51:26.588Z,99344.78
2023-01-01T18:53:58.685Z,99334.66
2023-01-01T18:56:25.641Z,99342.94
2023-01-01T18:58:56.322Z,99341.56
2023-01-01T19:01:24.258Z,99286.13
2023-01-01T19:04:01.021Z,99277.97
2023-01-01T19:06:36.113Z,99271.16
2023-01-01T19:09:23.334Z,99268.19
2023-01-01T19:11:54.407Z,99271.16
2023-01-01T19:14:24.175Z,99270.09
2023-01-01T19:16:55.481Z,99263.00
2023-01-01T19:19:26.859Z,99278.91
2023-01-01T19:22:01.725Z,99268.75
2023-01-01T19:24:31.371Z,99276.50
2023-01-01T19:27:15.375Z,99275.97
2023-01-01T19:29:44.489Z,99277.13
2023-01-01T19:32:11.136Z,99260.69
2023-01-01T19:34:37.702Z,99263.16
2023-01-01T19:37:04.997Z,99258.81
2023-01-01T19:39:32.161Z,99252.03
2023-01-01T19:41:58.784Z,99255.19
2023-01-01T19:44:25.521Z,99239.09
2023-01-01T19:46:51.920Z,99242.91
2023-01-01T19:49:18.317Z,99239.22
2023-01-01T19:51:45.108Z,99236.75
2023-01-01T19:54:11.745Z,99246.16
2023-01-01T19:56:38.256Z,99226.91
2023-01-01T19:59:04.789Z,99214.59
2023-01-01T20:01:31.261Z,99209.28
2023-01-01T20:03:58.040Z,99194.22
2023-01-01T20:06:26.016Z,99190.06
2023-01-01T20:08:53.733Z,99182.25
2023-01-01T20:11:21.020Z,99169.19
2023-01-01T20:13:48.155Z,99185.22
2023-01-01T20:16:14.569Z,99178.28
2023-01-01T20:18:40.994Z,99175.63
2023-01-01T20:21:07.541Z,99170.47
2023-01-01T20:23:34.038Z,99171.59
2023-01-01T20:26:00.472Z,99162.31
2023-01-01T20:28:26.876Z,99163.81
2023-01-01T20:30:53.273Z,99164.81
2023-01-01T20:33:19.787Z,99169.44
2023-01-01T20:35:46.232Z,99167.09
2023-01-01T20:38:12.717Z,99163.94
2023-01-01T20:40:39.199Z,99161.72
2023-01-01T20:43:06.055Z,99153.13
2023-01-01T20:45:32.622Z,99150.63
2023-01-01T20:47:59.163Z,99154.28
2023-01-01T20:50:25.796Z,99138.69
2023-01-01T20:52:52.180Z,99138.16
2023-01-01T20:55:18.524Z,99137.34
2023-01-01T20:57:44.877Z,99141.13
2023-01-01T21:00:11.657Z,99136.97
2023-01-01T21:02:38.147Z,99129.16
2023-01-01T21:05:04.849Z,99127.69
2023-01-01T21:07:31.390Z,99121.53
2023-01-01T21:09:57.851Z,99119.72
2023-01-01T21:12:24.217Z,99136.16
2023-01-01T21:14:51.655Z,99135.22
2023-01-01T21:17:23.118Z,99135.22
2023-01-01T21:19:52.127Z,99139.63
2023-01-01T21:22:18.490Z,99137.28
2023-01-01T21:24:49.696Z,99150.00
2023-01-01T21:27:24.245Z,99148.19
2023-01-01T21:29:55.938Z,99157.25
2023-01-01T21:32:26.829Z,99161.56
2023-01-01T21:34:54.014Z,99162.13
2023-01-01T21:37:33.599Z,99159.22
2023-01-01T21:40:00.185Z,99166.88
2023-01-01T21:42:28.141Z,99160.91
2023-01-01T21:44:57.560Z,99158.78
2023-01-01T21:47:25.907Z,99155.97
2023-01-01T21:49:56.235Z,99160.13
2023-01-01T21:52:25.021Z,99156.91
2023-01-01T21:54:51.319Z,99152.59
2023-01-01T21:57:22.497Z,99162.22
2023-01-01T21:59:50.540Z,99169.47
2023-01-01T22:02:26.239Z,99167.81
2023-01-01T22:04:52.758Z,99170.69
2023-01-01T22:10:21.883Z,99173.66
2023-01-01T22:12:53.959Z,99175.69
2023-01-01T22:15:26.432Z,99168.06
2023-01-01T22:18:21.887Z,99156.63
2023-01-01T22:20:48.632Z,99152.28
2023-01-01T22:23:28.525Z,99158.75
2023-01-01T22:25:54.839Z,99155.56
2023-01-01T22:28:27.237Z,99148.59
2023-01-01T22:30:58.695Z,99149.59
2023-01-01T22:33:37.747Z,99157.69
2023-01-01T22:36:15.211Z,99155.19
2023-01-01T22:38:43.111Z,99152.69
2023-01-01T22:41:09.896Z,99147.69
2023-01-01T22:43:41.099Z,99143.72
2023-01-01T22:46:17.026Z,99136.91
2023-01-01T22:48:43.604Z,99149.16
2023-01-01T22:51:18.425Z,99142.19
2023-01-01T22:53:45.223Z,99142.06
2023-01-01T22:56:11.722Z,99147.47
2023-01-01T22:58:38.213Z,99135.38
2023-01-01T23:01:04.761Z,99140.97
2023-01-01T23:03:31.373Z,99150.59
2023-01-01T23:05:58.641Z,99141.28
2023-01-01T23:08:25.872Z,99146.75
2023-01-01T23:10:53.470Z,99137.28
2023-01-01T23:13:20.083Z,99133.81
2023-01-01T23:15:49.725Z,99127.53
2023-01-01T23:18:20.212Z,99128.75
2023-01-01T23:20:46.557Z,99118.63
2023-01-01T23:23:12.949Z,99113.16
2023-01-01T23:25:39.437Z,99115.81
2023-01-01T23:28:05.976Z,99109.69
2023-01-01T23:30:32.698Z,99102.28
2023-01-01T23:32:59.264Z,99099.63
2023-01-01T23:35:25.756Z,99096.28
2023-01-01T23:37:52.229Z,99091.25
2023-01-01T23:40:18.834Z,99085.94
2023-01-01T23:42:45.162Z,99091.56
2023-01-01T23:45:11.508Z,99090.69
2023-01-01T23:47:37.865Z,99094.53
2023-01-01T23:50:04.567Z,99087.75
2023-01-01T23:52:31.064Z,99086.59
2023-01-01T23:54:57.426Z,99087.13
2023-01-01T23:57:23.890Z,99088.13
2023-01-01T23:59:50.237Z,99082.81
